createdAt,value
2023-03-23T15:58:47.804Z,17.80
2023-03-23T16:01:33.234Z,17.80
2023-03-23T16:04:19.536Z,17.80
2023-03-23T16:07:07.255Z,17.80
2023-03-23T16:09:52.860Z,17.80
2023-03-23T16:12:38.453Z,17.80
2023-03-23T16:15:24.227Z,17.80
2023-03-23T16:18:21.555Z,17.80
2023-03-23T16:21:07.231Z,17.80
2023-03-23T16:23:52.736Z,17.80
2023-03-23T16:26:40.798Z,17.80
2023-03-23T16:29:46.749Z,17.80
2023-03-23T16:32:31.511Z,17.80
2023-03-23T16:35:17.145Z,17.80
2023-03-23T16:38:07.040Z,17.80
2023-03-23T16:40:54.024Z,17.90
2023-03-23T16:43:39.780Z,17.80
2023-03-23T16:46:25.461Z,17.80
2023-03-23T16:49:10.896Z,17.90
2023-03-23T16:51:56.648Z,17.90
2023-03-23T16:54:42.172Z,17.90
2023-03-23T16:57:27.957Z,17.90
2023-03-23T17:00:20.413Z,17.90
2023-03-23T17:03:06.449Z,17.90
2023-03-23T17:05:52.278Z,17.90
2023-03-23T17:08:37.657Z,17.90
2023-03-23T17:11:23.217Z,17.90
2023-03-23T17:14:08.813Z,17.90
2023-03-23T17:16:54.476Z,17.90
2023-03-23T17:19:40.387Z,17.90
2023-03-23T17:22:25.927Z,17.90
2023-03-23T17:25:11.432Z,17.90
2023-03-23T17:27:57.102Z,17.90
2023-03-23T17:30:52.025Z,17.90
2023-03-23T17:33:37.435Z,17.90
2023-03-23T17:36:23.434Z,17.90
2023-03-23T17:39:08.828Z,17.90
2023-03-23T17:41:54.500Z,17.90
2023-03-23T17:44:40.144Z,17.90
2023-03-23T17:47:25.737Z,17.90
2023-03-23T17:50:12.672Z,17.90
2023-03-23T17:52:58.407Z,17.90
2023-03-23T17:55:45.144Z,17.90
2023-03-23T17:58:31.122Z,17.90
2023-03-23T18:01:16.544Z,17.90
2023-03-23T18:04:09.286Z,17.90
2023-03-23T18:06:56.965Z,17.90
2023-03-23T18:09:44.700Z,17.90
2023-03-23T18:12:31.341Z,17.90
2023-03-23T18:15:16.963Z,17.90
2023-03-23T18:18:03.712Z,17.90
2023-03-23T18:20:54.568Z,17.90
2023-03-23T18:23:49.030Z,17.90
2023-03-23T18:26:35.164Z,17.90
2023-03-23T18:29:20.676Z,17.90
2023-03-23T18:32:08.152Z,17.90
2023-03-23T18:34:53.776Z,17.90
2023-03-23T18:37:39.787Z,17.90
2023-03-23T18:40:25.584Z,17.80
2023-03-23T18:43:10.930Z,17.90
2023-03-23T18:45:57.099Z,17.80
2023-03-23T18:48:42.830Z,17.80
2023-03-23T18:51:28.537Z,17.80
2023-03-23T18:54:14.386Z,17.80
2023-03-23T18:57:02.584Z,17.70
2023-03-23T18:59:52.158Z,17.80
2023-03-23T19:02:39.672Z,17.80
2023-03-23T19:05:25.733Z,17.70
2023-03-23T19:08:11.765Z,17.60
2023-03-23T19:10:59.967Z,17.40
2023-03-23T19:13:57.877Z,17.30
2023-03-23T19:16:46.571Z,17.20
2023-03-23T19:19:32.701Z,17.10
2023-03-23T19:22:18.142Z,17.00
2023-03-23T19:25:04.930Z,17.00
2023-03-23T19:28:38.570Z,16.90
2023-03-23T19:30:57.122Z,16.90
2023-03-23T19:33:43.651Z,16.80
2023-03-23T19:36:29.250Z,16.80
2023-03-23T19:39:14.718Z,16.80
2023-03-23T19:42:00.427Z,16.70
2023-03-23T19:44:46.553Z,16.80
2023-03-23T19:47:32.223Z,16.70
2023-03-23T19:50:17.841Z,16.60
2023-03-23T19:53:03.697Z,16.70
2023-03-23T19:55:50.043Z,16.70
2023-03-23T19:58:36.129Z,16.70
2023-03-23T20:01:21.755Z,16.70
2023-03-23T20:04:08.321Z,16.60
2023-03-23T20:06:55.136Z,16.70
2023-03-23T20:09:40.858Z,16.70
2023-03-23T20:12:26.416Z,16.70
2023-03-23T20:15:12.230Z,16.60
2023-03-23T20:17:58.420Z,16.60
2023-03-23T20:20:44.055Z,16.70
2023-03-23T20:23:30.226Z,16.60
2023-03-23T20:26:17.246Z,16.60
2023-03-23T20:29:03.161Z,16.60
2023-03-23T20:31:50.833Z,16.60
2023-03-23T20:34:36.521Z,16.60
2023-03-23T20:37:23.994Z,16.60
2023-03-23T20:40:11.451Z,16.60
2023-03-23T20:42:57.766Z,16.60
2023-03-23T20:45:43.766Z,16.50
2023-03-23T20:48:32.085Z,16.50
2023-03-23T20:51:17.876Z,16.60
2023-03-23T20:54:03.840Z,16.50
2023-03-23T20:56:49.431Z,16.50
2023-03-23T20:59:35.010Z,16.60
2023-03-23T21:02:20.929Z,16.60
2023-03-23T21:05:06.387Z,16.50
2023-03-23T21:07:52.889Z,16.60
2023-03-23T21:10:38.812Z,16.50
2023-03-23T21:13:24.589Z,16.50
2023-03-23T21:16:10.351Z,16.50
2023-03-23T21:18:56.665Z,16.50
2023-03-23T21:21:55.571Z,16.50
2023-03-23T21:24:42.415Z,16.60
2023-03-23T21:27:28.325Z,16.50
2023-03-23T21:30:13.937Z,16.50
2023-03-23T21:32:59.401Z,16.50
2023-03-23T21:35:45.004Z,16.50
2023-03-23T21:38:30.692Z,16.10
2023-03-23T21:41:16.181Z,15.80
2023-03-23T21:44:05.334Z,15.40
2023-03-23T21:46:52.459Z,15.20
2023-03-23T21:49:40.641Z,15.10
2023-03-23T21:52:26.673Z,15.00
2023-03-23T21:55:12.546Z,14.90
2023-03-23T21:57:57.951Z,14.80
2023-03-23T22:00:45.766Z,14.80
2023-03-23T22:03:32.937Z,14.70
2023-03-23T22:06:21.013Z,14.60
2023-03-23T22:09:07.032Z,14.60
2023-03-23T22:11:52.514Z,14.60
2023-03-23T22:14:38.657Z,14.60
2023-03-23T22:17:24.337Z,14.50
2023-03-23T22:20:12.125Z,14.50
2023-03-23T22:22:57.612Z,14.60
2023-03-23T22:25:43.444Z,14.60
2023-03-23T22:28:28.997Z,14.50
2023-03-23T22:31:17.681Z,14.50
2023-03-23T22:34:03.446Z,14.50
2023-03-23T22:36:48.817Z,14.50
2023-03-23T22:39:34.683Z,14.50
2023-03-23T22:42:20.502Z,14.40
2023-03-23T22:45:09.088Z,14.40
2023-03-23T22:47:54.647Z,14.40
2023-03-23T22:50:40.531Z,14.40
2023-03-23T22:53:26.250Z,14.40
2023-03-23T22:56:12.068Z,14.40
2023-03-23T22:59:00.079Z,14.50
2023-03-23T23:01:45.729Z,14.50
2023-03-23T23:04:32.847Z,14.50
2023-03-23T23:07:19.356Z,14.50
2023-03-23T23:10:05.688Z,14.50
2023-03-23T23:12:54.031Z,14.50
2023-03-23T23:15:41.671Z,14.50
2023-03-23T23:18:27.751Z,14.50
2023-03-23T23:21:14.586Z,14.50
2023-03-23T23:24:00.230Z,14.50
2023-03-23T23:26:45.662Z,14.50
2023-03-23T23:29:31.666Z,14.40
2023-03-23T23:32:17.241Z,14.40
2023-03-23T23:35:04.033Z,14.40
2023-03-23T23:37:49.761Z,14.30
2023-03-23T23:40:35.387Z,14.30
2023-03-23T23:43:20.848Z,14.40
2023-03-23T23:46:06.957Z,14.40
2023-03-23T23:48:53.013Z,14.40
2023-03-23T23:51:38.569Z,14.40
2023-03-23T23:54:29.592Z,14.40
2023-03-23T23:57:16.696Z,14.40
